Time;durP1;ratioP1;P1;durP2;ratioP2;P2;SDS_P1;SDS_P2;PMS_P1;PMS_P2;Temp;Humidity;BMP_temperature;BMP_pressure;BME280_temperature;BME280_humidity;BME280_pressure;Samples;Min_cycle;Max_cycle;Signal;HPM_P1;HPM_P2
2021/03/03 00:07:26;;;;;;;1.40;1.30;;;12.00;99.90;;;;;;20772297;28;20294;-68
2021/03/03 00:17:28;;;;;;;1.90;1.20;;;11.90;99.90;;;;;;20768394;28;20193;-67
2021/03/03 00:27:32;;;;;;;3.40;1.93;;;11.90;99.90;;;;;;20768651;28;20226;-67
2021/03/03 00:37:48;;;;;;;1.33;1.23;;;11.80;99.90;;;;;;20769781;28;20752;-68
2021/03/03 00:47:52;;;;;;;2.17;1.60;;;11.80;99.90;;;;;;20773019;28;20692;-68
2021/03/03 00:57:55;;;;;;;1.43;0.73;;;11.80;99.90;;;;;;20773479;28;20422;-69
2021/03/03 01:08:10;;;;;;;2.07;1.87;;;11.90;99.90;;;;;;20787160;23;20229;-69
2021/03/03 01:18:13;;;;;;;0.83;0.77;;;11.90;99.90;;;;;;20805905;28;20214;-70
2021/03/03 01:28:16;;;;;;;1.37;1.27;;;11.80;99.90;;;;;;20786446;28;20237;-71
2021/03/03 01:38:34;;;;;;;2.67;1.90;;;11.70;99.90;;;;;;20785926;28;20193;-71
2021/03/03 01:48:38;;;;;;;4.10;1.87;;;11.80;99.90;;;;;;20786741;28;20706;-72
2021/03/03 01:58:41;;;;;;;7.03;3.30;;;11.70;99.90;;;;;;20784361;28;20201;-72
2021/03/03 02:09:01;;;;;;;3.50;1.53;;;11.70;99.90;;;;;;20783317;28;20335;-71
2021/03/03 02:19:05;;;;;;;2.30;2.13;;;11.80;99.90;;;;;;20781615;28;20312;-71
2021/03/03 02:29:11;;;;;;;1.47;1.10;;;11.80;99.90;;;;;;20780629;28;20226;-71
2021/03/03 02:39:15;;;;;;;0.83;0.80;;;11.70;99.90;;;;;;20780650;28;20198;-70
2021/03/03 02:49:21;;;;;;;1.33;1.30;;;11.70;99.90;;;;;;20780567;28;20889;-70
2021/03/03 02:59:28;;;;;;;0.63;0.63;;;11.70;99.90;;;;;;20779782;28;20198;-68
2021/03/03 03:09:39;;;;;;;3.53;1.47;;;11.70;99.90;;;;;;20779231;28;20233;-69
2021/03/03 03:19:45;;;;;;;1.80;1.53;;;11.70;99.90;;;;;;20777283;28;20198;-69
2021/03/03 03:29:48;;;;;;;0.53;0.53;;;11.60;99.90;;;;;;20776760;28;20225;-69
2021/03/03 03:39:58;;;;;;;18.60;3.13;;;11.70;99.90;;;;;;20770440;28;20279;-69
2021/03/03 03:50:05;;;;;;;0.50;0.50;;;11.70;99.90;;;;;;20773907;28;20225;-69
2021/03/03 04:00:08;;;;;;;1.87;1.63;;;11.60;99.90;;;;;;20776034;28;20226;-69
2021/03/03 04:10:24;;;;;;;3.30;1.53;;;11.60;99.90;;;;;;20773704;28;20229;-69
2021/03/03 04:20:27;;;;;;;1.80;1.70;;;11.60;99.90;;;;;;20771598;28;20194;-70
2021/03/03 04:30:31;;;;;;;8.03;2.60;;;11.60;99.90;;;;;;20774004;28;20221;-69
2021/03/03 04:40:43;;;;;;;4.33;1.13;;;11.50;99.90;;;;;;20771258;28;20245;-69
2021/03/03 04:50:47;;;;;;;1.07;0.57;;;11.50;99.90;;;;;;20787386;28;20267;-70
2021/03/03 05:00:50;;;;;;;13.07;2.30;;;11.60;99.90;;;;;;20798645;23;20241;-67
2021/03/03 05:11:10;;;;;;;1.03;0.97;;;11.70;99.90;;;;;;20785756;28;20217;-69
2021/03/03 05:21:12;;;;;;;0.87;0.50;;;11.70;99.90;;;;;;20786615;28;20200;-67
2021/03/03 05:31:16;;;;;;;0.20;0.20;;;11.70;99.90;;;;;;20785159;28;20218;-67
2021/03/03 05:41:34;;;;;;;0.97;0.90;;;11.70;99.90;;;;;;20785830;28;20198;-67
2021/03/03 05:51:38;;;;;;;2.37;1.30;;;12.00;99.90;;;;;;20784664;28;20249;-67
2021/03/03 06:01:41;;;;;;;0.77;0.77;;;11.80;99.90;;;;;;20779657;28;20218;-67
2021/03/03 06:11:57;;;;;;;0.87;0.87;;;11.80;99.90;;;;;;20779682;28;20290;-67
2021/03/03 06:22:21;;;;;;;5.40;1.40;;;12.00;99.90;;;;;;20781770;28;20433;-68
2021/03/03 06:32:27;;;;;;;6.63;1.83;;;12.30;99.90;;;;;;20779488;28;20649;-67
2021/03/03 06:42:29;;;;;;;0.50;0.50;;;12.40;99.90;;;;;;20780070;28;20514;-67
2021/03/03 06:52:39;;;;;;;3.97;1.83;;;12.40;99.90;;;;;;20776970;28;20236;-68
2021/03/03 07:02:43;;;;;;;1.87;0.90;;;12.20;99.90;;;;;;20775040;28;20935;-68
2021/03/03 07:12:49;;;;;;;11.53;1.73;;;12.40;99.90;;;;;;20774018;28;20641;-68
2021/03/03 07:22:53;;;;;;;0.30;0.30;;;12.50;99.90;;;;;;20790575;28;20194;-67
2021/03/03 07:32:57;;;;;;;1.00;0.90;;;12.50;99.90;;;;;;20774334;28;20715;-69
2021/03/03 07:43:09;;;;;;;1.63;1.53;;;12.70;99.90;;;;;;20773747;28;20266;-69
2021/03/03 07:53:14;;;;;;;0.53;0.40;;;13.00;99.90;;;;;;20775010;28;20226;-69
2021/03/03 08:03:38;;;;;;;3.83;0.73;;;13.30;99.90;;;;;;20768883;28;20284;-67
2021/03/03 08:13:45;;;;;;;3.23;1.50;;;13.20;99.90;;;;;;20770582;28;20217;-69
2021/03/03 08:23:48;;;;;;;0.73;0.60;;;13.30;99.90;;;;;;20767605;28;20276;-71
2021/03/03 08:34:01;;;;;;;2.57;1.27;;;13.60;99.90;;;;;;20770783;28;20647;-70
2021/03/03 08:44:05;;;;;;;3.67;1.73;;;13.80;99.90;;;;;;20767379;28;20209;-71
2021/03/03 08:54:10;;;;;;;3.97;1.17;;;13.80;99.90;;;;;;20761573;28;20939;-70
2021/03/03 09:04:13;;;;;;;1.97;0.90;;;14.40;99.90;;;;;;20767909;28;20688;-68
2021/03/03 09:14:20;;;;;;;2.33;1.37;;;14.70;99.90;;;;;;20737488;28;20241;-68
2021/03/03 09:24:24;;;;;;;1.07;0.90;;;14.70;99.90;;;;;;20747645;28;20190;-70
2021/03/03 09:34:27;;;;;;;1.53;1.43;;;14.80;99.90;;;;;;20777379;28;20331;-70
2021/03/03 09:44:49;;;;;;;3.17;1.20;;;15.00;99.90;;;;;;20781682;28;20260;-67
2021/03/03 09:54:53;;;;;;;4.23;2.10;;;15.50;99.90;;;;;;20781062;28;20368;-69
2021/03/03 10:04:58;;;;;;;1.13;1.07;;;16.00;99.90;;;;;;20779826;28;20228;-69
2021/03/03 10:15:05;;;;;;;1.83;1.67;;;16.40;99.90;;;;;;20782062;28;20228;-69
2021/03/03 10:25:12;;;;;;;0.90;0.80;;;16.60;99.90;;;;;;20777478;28;20214;-68
2021/03/03 10:35:16;;;;;;;0.50;0.50;;;16.80;99.90;;;;;;20779376;28;20460;-69
2021/03/03 10:45:21;;;;;;;8.23;0.93;;;17.00;99.90;;;;;;20777194;28;20264;-68
2021/03/03 10:55:26;;;;;;;1.67;0.47;;;16.70;99.90;;;;;;20777914;28;20218;-67
2021/03/03 11:05:29;;;;;;;0.50;0.50;;;16.50;99.90;;;;;;20777202;28;20225;-71
2021/03/03 11:15:42;;;;;;;1.00;0.97;;;16.80;99.90;;;;;;20776940;28;20227;-68
2021/03/03 11:25:45;;;;;;;0.50;0.40;;;17.80;99.90;;;;;;20775013;28;20190;-70
2021/03/03 11:35:53;;;;;;;0.43;0.43;;;17.90;99.90;;;;;;20769143;28;20222;-69
2021/03/03 11:46:02;;;;;;;3.07;1.03;;;18.50;99.90;;;;;;20771672;28;20554;-71
2021/03/03 11:56:07;;;;;;;0.90;0.60;;;18.80;99.90;;;;;;20770825;28;20233;-70
2021/03/03 12:06:09;;;;;;;2.40;0.70;;;18.10;99.90;;;;;;20773829;28;20574;-69
2021/03/03 12:16:26;;;;;;;1.23;0.60;;;18.60;99.90;;;;;;20773803;28;20419;-71
2021/03/03 12:26:29;;;;;;;3.20;1.33;;;18.70;99.90;;;;;;20770090;28;20190;-70
2021/03/03 12:36:33;;;;;;;0.53;0.53;;;18.50;99.90;;;;;;20773245;28;20933;-70
2021/03/03 12:46:51;;;;;;;1.13;0.63;;;19.00;99.90;;;;;;20770398;28;20299;-70
2021/03/03 12:56:55;;;;;;;0.70;0.70;;;19.10;99.90;;;;;;20767775;28;20224;-71
2021/03/03 13:06:58;;;;;;;1.03;0.80;;;19.40;99.90;;;;;;20775824;28;20865;-69
2021/03/03 13:17:14;;;;;;;0.83;0.40;;;19.80;99.90;;;;;;20786285;28;20605;-69
2021/03/03 13:27:17;;;;;;;5.50;1.07;;;19.90;99.90;;;;;;20784378;28;20202;-73
2021/03/03 13:37:21;;;;;;;0.83;0.83;;;19.60;99.90;;;;;;20778886;28;20721;-71
2021/03/03 13:47:39;;;;;;;2.10;0.87;;;20.10;99.90;;;;;;20784002;28;20312;-71
2021/03/03 13:57:44;;;;;;;6.40;1.53;;;19.90;99.90;;;;;;20783511;28;20222;-71
2021/03/03 14:07:47;;;;;;;0.70;0.70;;;20.40;99.90;;;;;;20781429;28;20590;-69
2021/03/03 14:18:01;;;;;;;1.03;1.00;;;20.30;99.90;;;;;;20781029;28;20230;-71
2021/03/03 14:28:04;;;;;;;8.23;2.03;;;20.60;99.90;;;;;;20778315;28;20307;-70
2021/03/03 14:38:08;;;;;;;0.47;0.40;;;20.50;99.90;;;;;;20779058;28;20245;-70
2021/03/03 14:48:25;;;;;;;1.87;1.40;;;19.90;99.90;;;;;;20779990;28;20194;-70
2021/03/03 14:58:28;;;;;;;0.20;0.20;;;19.70;99.90;;;;;;20779321;28;20539;-71
2021/03/03 15:08:31;;;;;;;2.13;1.03;;;19.30;99.90;;;;;;20772549;28;20317;-69
2021/03/03 15:18:35;;;;;;;2.40;1.13;;;18.80;99.90;;;;;;20776879;28;20856;-70
2021/03/03 15:28:37;;;;;;;1.43;1.33;;;19.10;99.90;;;;;;20774460;28;20198;-69
2021/03/03 15:38:41;;;;;;;1.30;0.80;;;18.80;99.90;;;;;;20772188;28;20597;-70
2021/03/03 15:48:51;;;;;;;1.90;0.50;;;18.40;99.90;;;;;;20772007;28;20451;-68
2021/03/03 15:58:58;;;;;;;1.17;1.07;;;17.70;99.90;;;;;;20767651;28;20202;-69
2021/03/03 16:09:01;;;;;;;0.20;0.17;;;17.60;99.90;;;;;;20770015;28;20384;-68
2021/03/03 16:19:15;;;;;;;0.70;0.70;;;17.60;99.90;;;;;;20787021;28;20221;-69
2021/03/03 16:29:19;;;;;;;0.47;0.47;;;17.20;99.90;;;;;;20750151;28;20234;-67
2021/03/03 16:39:22;;;;;;;1.50;0.97;;;16.80;99.90;;;;;;20768170;28;20281;-69
2021/03/03 16:49:33;;;;;;;1.50;0.40;;;16.10;99.90;;;;;;20765816;28;20309;-69
2021/03/03 16:59:37;;;;;;;1.13;0.87;;;15.90;99.90;;;;;;20768574;28;20213;-68
2021/03/03 17:09:40;;;;;;;2.33;1.63;;;15.70;99.90;;;;;;20767055;28;20233;-68
2021/03/03 17:20:04;;;;;;;0.27;0.27;;;15.50;99.90;;;;;;20750378;28;20194;-68
2021/03/03 17:30:10;;;;;;;1.17;0.57;;;15.30;99.90;;;;;;20766658;28;20368;-69
2021/03/03 17:40:14;;;;;;;0.50;0.50;;;15.00;99.90;;;;;;20763182;28;20194;-70
2021/03/03 17:50:26;;;;;;;1.20;0.90;;;14.60;99.90;;;;;;20762521;28;20241;-67
2021/03/03 18:00:30;;;;;;;1.00;0.70;;;14.30;99.90;;;;;;20782374;28;20284;-68
2021/03/03 18:10:33;;;;;;;0.63;0.53;;;14.20;99.90;;;;;;20778295;28;20225;-68
2021/03/03 18:20:47;;;;;;;0.57;0.40;;;14.20;99.90;;;;;;20777282;28;20679;-71
2021/03/03 18:30:50;;;;;;;1.50;0.83;;;14.00;99.90;;;;;;20776255;28;20248;-69
2021/03/03 18:40:54;;;;;;;0.50;0.50;;;14.10;99.90;;;;;;20765841;28;20221;-69
2021/03/03 18:51:10;;;;;;;3.53;1.33;;;14.00;99.90;;;;;;20775257;28;20236;-68
2021/03/03 19:01:14;;;;;;;1.70;1.20;;;13.90;99.90;;;;;;20776202;28;20237;-68
2021/03/03 19:11:16;;;;;;;0.53;0.47;;;13.80;99.90;;;;;;20773853;28;20335;-68
2021/03/03 19:21:34;;;;;;;0.60;0.60;;;13.60;99.90;;;;;;20772590;28;20942;-66
2021/03/03 19:31:38;;;;;;;0.60;0.60;;;13.60;99.90;;;;;;20770675;28;20516;-69
2021/03/03 19:41:42;;;;;;;2.07;1.87;;;13.10;99.90;;;;;;20771187;28;20297;-68
2021/03/03 19:51:56;;;;;;;2.83;0.87;;;12.80;99.90;;;;;;20773151;28;20759;-68
2021/03/03 20:02:00;;;;;;;0.97;0.97;;;12.50;99.90;;;;;;20770309;28;20589;-68
2021/03/03 20:12:03;;;;;;;8.80;2.57;;;12.40;99.90;;;;;;20772358;28;20605;-67
2021/03/03 20:22:20;;;;;;;1.60;1.50;;;12.50;99.90;;;;;;20769573;28;20194;-68
2021/03/03 20:32:23;;;;;;;1.43;1.33;;;12.40;99.90;;;;;;20768513;28;20221;-67
2021/03/03 20:42:27;;;;;;;6.27;2.97;;;12.30;99.90;;;;;;20770872;28;20198;-67
2021/03/03 20:52:39;;;;;;;0.90;0.90;;;12.10;99.90;;;;;;20769169;28;20232;-68
2021/03/03 21:02:43;;;;;;;4.00;2.17;;;11.90;99.90;;;;;;20772002;28;20233;-68
2021/03/03 21:12:45;;;;;;;1.50;1.40;;;11.80;99.90;;;;;;20768264;28;20228;-69
2021/03/03 21:23:03;;;;;;;2.53;1.27;;;11.80;99.90;;;;;;20769121;28;20194;-68
2021/03/03 21:33:06;;;;;;;2.27;1.80;;;11.80;99.90;;;;;;20785428;28;20702;-70
2021/03/03 21:43:09;;;;;;;1.17;0.83;;;11.70;99.90;;;;;;20784670;28;20233;-69
2021/03/03 21:53:24;;;;;;;1.43;1.37;;;11.60;99.90;;;;;;20784530;28;20732;-70
2021/03/03 22:03:28;;;;;;;1.20;0.73;;;11.50;99.90;;;;;;20782945;28;20809;-70
2021/03/03 22:13:31;;;;;;;0.87;0.87;;;11.50;99.90;;;;;;20783857;28;20226;-69
2021/03/03 22:23:48;;;;;;;1.77;1.10;;;11.30;99.90;;;;;;20766811;28;20213;-69
2021/03/03 22:33:51;;;;;;;1.83;1.67;;;11.20;99.90;;;;;;20781643;28;20233;-69
2021/03/03 22:43:54;;;;;;;1.47;0.87;;;11.20;99.90;;;;;;20761707;28;20518;-68
2021/03/03 22:54:09;;;;;;;4.27;1.27;;;11.10;99.90;;;;;;20781413;28;20279;-68
2021/03/03 23:04:12;;;;;;;1.37;0.67;;;11.10;99.90;;;;;;20778076;28;20233;-69
2021/03/03 23:14:15;;;;;;;0.97;0.97;;;11.00;99.90;;;;;;20779744;28;20228;-69
2021/03/03 23:24:41;;;;;;;0.87;0.67;;;11.10;99.90;;;;;;20779420;28;20202;-69
2021/03/03 23:34:44;;;;;;;1.93;1.83;;;10.90;99.90;;;;;;20777131;28;20225;-70
2021/03/03 23:44:47;;;;;;;1.37;1.13;;;10.90;99.90;;;;;;20776913;28;20659;-69
2021/03/03 23:54:56;;;;;;;0.57;0.57;;;10.80;99.90;;;;;;20776233;28;20463;-69
